Time;durP1;ratioP1;P1;durP2;ratioP2;P2;SDS_P1;SDS_P2;PMS_P1;PMS_P2;Temp;Humidity;BMP_temperature;BMP_pressure;BME280_temperature;BME280_humidity;BME280_pressure;Samples;Min_cycle;Max_cycle;Signal;HPM_P1;HPM_P2
2023/11/06 00:01:26;;;;;;;12.93;8.85;;;;;;;;;;10534108;28;20396;-81
2023/11/06 00:06:28;;;;;;;13.25;9.15;;;;;;;;;;10537991;28;20519;-80
2023/11/06 00:11:34;;;;;;;14.00;9.38;;;;;;;;;;10533872;28;20400;-81
2023/11/06 00:16:37;;;;;;;11.25;8.57;;;;;;;;;;10540502;28;20410;-81
2023/11/06 00:21:40;;;;;;;12.13;8.75;;;;;;;;;;10538111;28;20464;-81
2023/11/06 00:26:45;;;;;;;12.13;8.60;;;;;;;;;;10541130;28;20476;-81
2023/11/06 00:31:48;;;;;;;12.82;9.07;;;;;;;;;;10538576;28;20405;-81
2023/11/06 00:36:50;;;;;;;10.95;8.25;;;;;;;;;;10538083;28;20451;-81
2023/11/06 00:41:54;;;;;;;13.25;8.50;;;;;;;;;;10537400;28;20474;-81
2023/11/06 00:46:57;;;;;;;10.30;7.93;;;;;;;;;;10537208;28;20495;-81
2023/11/06 00:51:59;;;;;;;9.95;7.18;;;;;;;;;;10534077;28;20404;-81
2023/11/06 00:57:03;;;;;;;9.57;7.70;;;;;;;;;;10534868;28;20414;-81
2023/11/06 01:02:05;;;;;;;10.63;7.60;;;;;;;;;;10534882;28;20770;-80
2023/11/06 01:07:08;;;;;;;8.73;6.63;;;;;;;;;;10540420;28;20442;-81
2023/11/06 01:12:12;;;;;;;9.43;7.43;;;;;;;;;;10538588;28;20404;-81
2023/11/06 01:17:14;;;;;;;10.88;7.25;;;;;;;;;;10539916;28;20426;-81
2023/11/06 01:22:16;;;;;;;9.70;6.70;;;;;;;;;;10533597;28;20473;-81
2023/11/06 01:27:20;;;;;;;8.80;6.73;;;;;;;;;;10536258;28;20443;-81
2023/11/06 01:32:23;;;;;;;8.38;6.78;;;;;;;;;;10533134;28;20404;-81
2023/11/06 01:37:26;;;;;;;10.75;6.95;;;;;;;;;;10527557;28;20478;-81
2023/11/06 01:42:31;;;;;;;8.82;6.85;;;;;;;;;;10538330;28;20823;-80
2023/11/06 01:47:35;;;;;;;8.97;6.40;;;;;;;;;;10533783;28;20485;-81
2023/11/06 01:52:38;;;;;;;11.18;6.75;;;;;;;;;;10536492;28;20891;-81
2023/11/06 01:57:42;;;;;;;10.23;6.40;;;;;;;;;;10535855;28;20949;-81
2023/11/06 02:02:47;;;;;;;9.93;6.50;;;;;;;;;;10537395;28;20462;-81
2023/11/06 02:07:49;;;;;;;8.85;6.20;;;;;;;;;;10535482;28;20943;-81
2023/11/06 02:12:53;;;;;;;7.13;5.68;;;;;;;;;;10537417;28;20404;-81
2023/11/06 02:17:56;;;;;;;8.23;5.30;;;;;;;;;;10532212;28;20873;-81
2023/11/06 02:23:03;;;;;;;7.17;5.30;;;;;;;;;;10525758;28;20412;-81
2023/11/06 02:28:07;;;;;;;7.50;5.53;;;;;;;;;;10526957;28;20506;-81
2023/11/06 02:33:09;;;;;;;7.00;5.13;;;;;;;;;;10530079;28;20400;-81
2023/11/06 02:38:13;;;;;;;7.68;5.28;;;;;;;;;;10534911;28;20408;-81
2023/11/06 02:43:15;;;;;;;6.55;5.20;;;;;;;;;;10534995;28;20760;-81
2023/11/06 02:48:18;;;;;;;6.80;4.97;;;;;;;;;;10535272;28;20512;-81
2023/11/06 02:53:22;;;;;;;6.68;4.90;;;;;;;;;;10533007;28;20924;-81
2023/11/06 02:58:24;;;;;;;5.73;4.73;;;;;;;;;;10528605;28;20413;-81
2023/11/06 03:03:27;;;;;;;6.33;4.83;;;;;;;;;;10530916;28;20943;-81
2023/11/06 03:08:30;;;;;;;6.32;5.30;;;;;;;;;;10515293;28;20420;-81
2023/11/06 03:13:33;;;;;;;7.40;5.93;;;;;;;;;;10534565;28;20412;-81
2023/11/06 03:18:35;;;;;;;7.17;5.53;;;;;;;;;;10538247;28;20404;-81
2023/11/06 03:23:39;;;;;;;8.17;5.90;;;;;;;;;;10531821;28;20452;-81
2023/11/06 03:28:42;;;;;;;7.63;5.65;;;;;;;;;;10534938;28;20416;-82
2023/11/06 03:33:44;;;;;;;7.00;5.37;;;;;;;;;;10533840;28;20456;-81
2023/11/06 03:38:49;;;;;;;8.88;6.20;;;;;;;;;;10531661;28;21009;-81
2023/11/06 03:43:51;;;;;;;8.40;6.13;;;;;;;;;;10534442;28;20439;-80
2023/11/06 03:48:54;;;;;;;8.73;6.90;;;;;;;;;;10534873;28;20494;-80
2023/11/06 03:53:58;;;;;;;9.68;6.78;;;;;;;;;;10531969;28;20942;-80
2023/11/06 03:59:00;;;;;;;10.57;6.53;;;;;;;;;;10540248;28;20430;-80
2023/11/06 04:04:02;;;;;;;13.05;7.35;;;;;;;;;;10543945;28;20431;-80
2023/11/06 04:09:07;;;;;;;9.30;6.85;;;;;;;;;;10531541;28;20513;-81
2023/11/06 04:14:09;;;;;;;10.37;6.87;;;;;;;;;;10532762;28;20880;-80
2023/11/06 04:19:12;;;;;;;11.23;7.73;;;;;;;;;;10539028;28;20477;-81
2023/11/06 04:24:16;;;;;;;10.90;7.57;;;;;;;;;;10533192;28;20413;-80
2023/11/06 04:29:19;;;;;;;10.52;7.25;;;;;;;;;;10535718;28;20430;-80
2023/11/06 04:34:21;;;;;;;9.30;7.20;;;;;;;;;;10538091;28;20474;-80
2023/11/06 04:39:25;;;;;;;10.48;6.57;;;;;;;;;;10536124;28;20510;-80
2023/11/06 04:44:27;;;;;;;9.88;6.30;;;;;;;;;;10535287;28;20400;-81
2023/11/06 04:49:29;;;;;;;9.07;6.30;;;;;;;;;;10532091;28;20452;-80
2023/11/06 04:54:33;;;;;;;7.43;5.80;;;;;;;;;;10534272;28;21043;-80
2023/11/06 04:59:35;;;;;;;8.43;5.80;;;;;;;;;;10531076;28;20864;-81
2023/11/06 05:04:38;;;;;;;7.78;5.47;;;;;;;;;;10537800;28;20426;-80
2023/11/06 05:09:42;;;;;;;6.93;5.33;;;;;;;;;;10539346;28;20424;-80
2023/11/06 05:14:44;;;;;;;8.00;5.40;;;;;;;;;;10536366;28;20454;-81
2023/11/06 05:19:47;;;;;;;7.00;5.03;;;;;;;;;;10533191;28;20442;-80
2023/11/06 05:24:51;;;;;;;6.43;4.80;;;;;;;;;;10535256;28;20485;-81
2023/11/06 05:29:53;;;;;;;7.23;4.87;;;;;;;;;;10534838;28;20973;-80
2023/11/06 05:34:57;;;;;;;6.07;4.30;;;;;;;;;;10536914;28;20409;-80
2023/11/06 05:40:01;;;;;;;7.83;4.60;;;;;;;;;;10537675;28;20506;-80
2023/11/06 05:45:05;;;;;;;6.80;4.63;;;;;;;;;;10536775;28;20438;-80
2023/11/06 05:50:08;;;;;;;7.25;4.78;;;;;;;;;;10530603;28;20828;-81
2023/11/06 05:55:11;;;;;;;6.75;4.82;;;;;;;;;;10529101;28;20878;-80
2023/11/06 06:00:15;;;;;;;6.20;4.45;;;;;;;;;;10530609;28;20768;-80
2023/11/06 06:05:17;;;;;;;9.10;4.70;;;;;;;;;;10528816;28;20408;-80
2023/11/06 06:10:21;;;;;;;5.68;4.57;;;;;;;;;;10530199;28;20452;-80
2023/11/06 06:15:24;;;;;;;9.10;4.75;;;;;;;;;;10528657;28;20401;-81
2023/11/06 06:20:26;;;;;;;8.83;5.50;;;;;;;;;;10524099;28;20809;-80
2023/11/06 06:25:30;;;;;;;8.50;5.18;;;;;;;;;;10524026;28;20406;-81
2023/11/06 06:30:32;;;;;;;8.07;4.80;;;;;;;;;;10526610;28;20475;-81
2023/11/06 06:35:35;;;;;;;5.50;4.03;;;;;;;;;;10524795;28;20417;-81
2023/11/06 06:40:38;;;;;;;5.10;3.97;;;;;;;;;;10531479;28;20758;-80
2023/11/06 06:45:41;;;;;;;7.25;4.85;;;;;;;;;;10513754;28;20440;-81
2023/11/06 06:50:43;;;;;;;8.15;4.65;;;;;;;;;;10516785;28;20837;-81
2023/11/06 06:55:47;;;;;;;5.18;4.40;;;;;;;;;;10524376;28;20428;-80
2023/11/06 07:00:49;;;;;;;7.93;5.03;;;;;;;;;;10519485;28;20424;-81
2023/11/06 07:05:51;;;;;;;8.07;5.37;;;;;;;;;;10520211;28;20428;-80
2023/11/06 07:10:55;;;;;;;9.40;5.60;;;;;;;;;;10525304;28;20923;-81
2023/11/06 07:15:57;;;;;;;6.45;5.30;;;;;;;;;;10518942;28;21018;-81
2023/11/06 07:21:00;;;;;;;8.35;5.50;;;;;;;;;;10528203;28;21039;-81
2023/11/06 07:26:04;;;;;;;8.02;4.93;;;;;;;;;;10527873;28;20404;-81
2023/11/06 07:31:06;;;;;;;7.47;4.68;;;;;;;;;;10520327;28;20458;-81
2023/11/06 07:36:09;;;;;;;6.37;4.73;;;;;;;;;;10540670;28;20883;-80
2023/11/06 07:41:14;;;;;;;9.75;4.60;;;;;;;;;;10541642;28;20461;-80
2023/11/06 07:46:20;;;;;;;5.60;3.50;;;;;;;;;;10534340;28;20469;-80
2023/11/06 07:51:22;;;;;;;5.25;3.92;;;;;;;;;;10540195;28;20434;-80
2023/11/06 07:56:26;;;;;;;7.18;3.88;;;;;;;;;;10541294;28;20405;-81
2023/11/06 08:01:28;;;;;;;5.93;3.60;;;;;;;;;;10539983;28;20398;-80
2023/11/06 08:06:31;;;;;;;8.13;4.40;;;;;;;;;;10541103;28;20410;-80
2023/11/06 08:11:36;;;;;;;7.50;4.45;;;;;;;;;;10540800;28;20456;-80
2023/11/06 08:16:39;;;;;;;5.97;3.90;;;;;;;;;;10542831;28;20408;-80
2023/11/06 08:21:41;;;;;;;5.70;3.80;;;;;;;;;;10539317;28;20408;-80
2023/11/06 08:26:45;;;;;;;6.20;3.77;;;;;;;;;;10539827;28;20404;-80
2023/11/06 08:31:48;;;;;;;7.07;4.13;;;;;;;;;;10535056;28;20487;-80
2023/11/06 08:36:51;;;;;;;6.00;3.30;;;;;;;;;;10538609;28;20406;-80
2023/11/06 08:41:55;;;;;;;4.97;3.70;;;;;;;;;;10537409;28;21101;-80
2023/11/06 08:46:57;;;;;;;8.17;3.70;;;;;;;;;;10529961;28;20441;-80
2023/11/06 08:51:59;;;;;;;4.47;3.27;;;;;;;;;;10536124;28;20451;-80
2023/11/06 08:57:03;;;;;;;4.97;3.53;;;;;;;;;;10539183;28;20961;-81
2023/11/06 09:02:06;;;;;;;4.07;3.45;;;;;;;;;;10532840;28;20400;-81
2023/11/06 09:12:58;;;;;;;3.63;2.90;;;;;;;;;;10533329;28;20420;-81
2023/11/06 09:18:00;;;;;;;4.67;3.93;;;;;;;;;;10532640;28;20396;-81
2023/11/06 09:23:02;;;;;;;4.03;3.07;;;;;;;;;;10531807;28;20388;-81
2023/11/06 09:28:06;;;;;;;5.70;3.85;;;;;;;;;;10537571;28;20438;-81
2023/11/06 09:33:08;;;;;;;4.87;3.37;;;;;;;;;;10523844;28;20514;-81
2023/11/06 09:38:10;;;;;;;19.35;5.72;;;;;;;;;;10533301;28;20410;-80
2023/11/06 09:43:14;;;;;;;13.10;7.47;;;;;;;;;;10536259;28;20441;-81
2023/11/06 09:48:19;;;;;;;8.23;4.32;;;;;;;;;;10529530;28;20493;-80
2023/11/06 09:53:23;;;;;;;5.53;4.40;;;;;;;;;;10528359;28;20410;-81
2023/11/06 09:58:26;;;;;;;20.02;10.20;;;;;;;;;;10531965;28;20882;-81
2023/11/06 10:03:28;;;;;;;3.33;2.70;;;;;;;;;;10528253;28;20408;-81
2023/11/06 10:08:31;;;;;;;8.85;4.15;;;;;;;;;;10531631;28;20442;-81
2023/11/06 10:13:51;;;;;;;5.18;2.90;;;;;;;;;;10529573;28;20514;-81
2023/11/06 10:24:13;;;;;;;6.23;3.70;;;;;;;;;;10470824;23;20444;-81
2023/11/06 10:29:18;;;;;;;4.55;3.53;;;;;;;;;;10471843;28;20426;-81
2023/11/06 10:34:28;;;;;;;26.73;5.90;;;;;;;;;;10478183;28;20501;-81
2023/11/06 10:39:32;;;;;;;5.03;3.42;;;;;;;;;;10475405;28;20412;-81
2023/11/06 10:44:37;;;;;;;6.57;3.40;;;;;;;;;;10470438;28;20456;-81
2023/11/06 10:49:45;;;;;;;4.55;3.60;;;;;;;;;;10475719;28;20416;-81
2023/11/06 10:54:48;;;;;;;6.55;3.38;;;;;;;;;;10474780;28;20483;-81
2023/11/06 10:59:54;;;;;;;6.10;3.15;;;;;;;;;;10463625;28;20402;-81
2023/11/06 11:04:59;;;;;;;5.27;3.40;;;;;;;;;;10474367;28;20782;-80
2023/11/06 11:10:04;;;;;;;8.47;5.90;;;;;;;;;;10483925;28;20467;-82
2023/11/06 11:15:08;;;;;;;6.97;3.80;;;;;;;;;;10481963;28;20411;-81
2023/11/06 11:20:11;;;;;;;4.47;3.57;;;;;;;;;;10481317;28;20480;-81
2023/11/06 11:25:14;;;;;;;4.75;3.63;;;;;;;;;;10489284;28;20461;-81
2023/11/06 11:30:27;;;;;;;9.15;4.13;;;;;;;;;;10488152;28;20527;-81
2023/11/06 11:35:49;;;;;;;5.47;3.00;;;;;;;;;;10486588;28;20465;-81
2023/11/06 11:41:15;;;;;;;4.68;3.45;;;;;;;;;;10487163;28;20790;-81
2023/11/06 11:46:55;;;;;;;4.87;3.63;;;;;;;;;;10480366;28;20487;-81
2023/11/06 11:51:57;;;;;;;6.47;4.43;;;;;;;;;;10476410;28;20453;-82
2023/11/06 11:57:02;;;;;;;6.33;4.00;;;;;;;;;;10474276;28;20469;-81
2023/11/06 12:02:08;;;;;;;7.70;3.45;;;;;;;;;;10475246;28;20456;-81
2023/11/06 12:07:11;;;;;;;6.18;3.60;;;;;;;;;;10480422;28;20404;-81
2023/11/06 12:12:17;;;;;;;5.55;3.25;;;;;;;;;;10477568;28;20464;-80
2023/11/06 12:17:28;;;;;;;6.03;3.57;;;;;;;;;;10459871;28;20517;-80
2023/11/06 12:22:33;;;;;;;4.93;3.00;;;;;;;;;;10460739;28;20453;-81
2023/11/06 12:27:37;;;;;;;7.97;5.07;;;;;;;;;;10475642;28;20445;-81
2023/11/06 12:32:40;;;;;;;4.53;3.40;;;;;;;;;;10462946;28;20884;-81
2023/11/06 12:37:54;;;;;;;5.43;3.80;;;;;;;;;;10465249;28;20423;-81
2023/11/06 12:43:00;;;;;;;6.55;2.92;;;;;;;;;;10467546;28;20455;-82
2023/11/06 12:48:21;;;;;;;4.85;2.80;;;;;;;;;;10470031;28;21004;-81
2023/11/06 12:53:24;;;;;;;5.47;2.50;;;;;;;;;;10463349;28;20453;-81
2023/11/06 12:58:27;;;;;;;4.65;2.42;;;;;;;;;;10470253;28;20446;-82
2023/11/06 13:03:34;;;;;;;8.50;3.30;;;;;;;;;;10459351;28;20444;-82
2023/11/06 13:08:36;;;;;;;5.03;3.15;;;;;;;;;;10459740;28;20455;-81
2023/11/06 13:13:39;;;;;;;5.33;2.40;;;;;;;;;;10464222;28;20587;-80
2023/11/06 13:18:45;;;;;;;4.63;2.47;;;;;;;;;;10470440;28;20434;-81
2023/11/06 13:23:48;;;;;;;5.27;2.13;;;;;;;;;;10464222;28;20458;-80
2023/11/06 13:28:51;;;;;;;5.73;1.93;;;;;;;;;;10467177;28;20762;-80
2023/11/06 13:33:56;;;;;;;3.20;1.73;;;;;;;;;;10476599;28;20845;-80
2023/11/06 13:38:58;;;;;;;4.47;2.00;;;;;;;;;;10477603;28;20410;-80
2023/11/06 13:44:02;;;;;;;4.25;2.10;;;;;;;;;;10477498;28;20971;-80
2023/11/06 13:49:11;;;;;;;4.47;1.90;;;;;;;;;;10476952;28;20866;-80
2023/11/06 13:54:22;;;;;;;5.78;2.10;;;;;;;;;;10469551;28;20955;-80
2023/11/06 13:59:34;;;;;;;3.03;1.77;;;;;;;;;;10465486;28;20471;-80
2023/11/06 14:04:40;;;;;;;3.40;1.90;;;;;;;;;;10471294;28;20431;-81
2023/11/06 14:09:46;;;;;;;3.80;1.90;;;;;;;;;;10469393;28;20434;-80
2023/11/06 14:14:50;;;;;;;4.13;1.70;;;;;;;;;;10461143;28;20515;-81
2023/11/06 14:19:54;;;;;;;4.47;2.00;;;;;;;;;;10466919;28;20426;-80
2023/11/06 14:24:56;;;;;;;5.17;1.57;;;;;;;;;;10463560;28;20437;-81
2023/11/06 14:29:58;;;;;;;2.60;1.67;;;;;;;;;;10463896;28;20527;-80
2023/11/06 14:35:03;;;;;;;5.80;1.63;;;;;;;;;;10468375;28;21002;-80
2023/11/06 14:40:13;;;;;;;3.13;2.03;;;;;;;;;;10459892;28;20466;-80
2023/11/06 14:45:16;;;;;;;3.60;1.67;;;;;;;;;;10464509;28;20459;-80
2023/11/06 14:50:20;;;;;;;7.47;2.25;;;;;;;;;;10467299;28;20460;-80
2023/11/06 14:55:22;;;;;;;5.18;1.42;;;;;;;;;;10456745;28;20460;-80
2023/11/06 15:00:25;;;;;;;5.20;1.73;;;;;;;;;;10458234;28;20862;-80
2023/11/06 15:05:31;;;;;;;3.97;1.55;;;;;;;;;;10453072;28;20435;-82
2023/11/06 15:10:33;;;;;;;4.30;1.80;;;;;;;;;;10456123;28;20435;-80
2023/11/06 15:15:35;;;;;;;4.50;1.90;;;;;;;;;;10455419;28;20447;-81
2023/11/06 15:20:39;;;;;;;4.72;1.73;;;;;;;;;;10465146;28;20426;-80
2023/11/06 15:25:43;;;;;;;8.67;2.27;;;;;;;;;;10466930;28;21272;-79
2023/11/06 15:30:45;;;;;;;8.02;2.28;;;;;;;;;;10471741;28;20779;-80
2023/11/06 15:35:49;;;;;;;11.02;2.65;;;;;;;;;;10471230;28;20496;-80
2023/11/06 15:40:51;;;;;;;8.43;3.17;;;;;;;;;;10469258;28;20444;-81
2023/11/06 15:45:54;;;;;;;6.70;2.80;;;;;;;;;;10472443;28;20469;-80
2023/11/06 15:50:58;;;;;;;6.28;2.50;;;;;;;;;;10470373;28;20438;-78
2023/11/06 15:56:00;;;;;;;6.10;2.80;;;;;;;;;;10479866;28;20501;-80
2023/11/06 16:01:02;;;;;;;5.97;3.00;;;;;;;;;;10482239;28;20414;-81
2023/11/06 16:06:09;;;;;;;5.13;3.50;;;;;;;;;;10468282;28;20436;-81
2023/11/06 16:11:13;;;;;;;11.25;4.25;;;;;;;;;;10482504;28;20534;-81
2023/11/06 16:16:15;;;;;;;10.38;5.35;;;;;;;;;;10472319;28;20433;-79
2023/11/06 16:21:19;;;;;;;7.97;4.13;;;;;;;;;;10475334;28;20439;-80
2023/11/06 16:26:21;;;;;;;12.02;6.53;;;;;;;;;;10473709;28;20518;-80
2023/11/06 16:31:23;;;;;;;10.73;5.30;;;;;;;;;;10469200;28;20446;-79
2023/11/06 16:36:27;;;;;;;11.52;4.57;;;;;;;;;;10469957;28;20447;-80
2023/11/06 16:41:29;;;;;;;11.80;6.65;;;;;;;;;;10467617;28;20431;-80
2023/11/06 16:46:32;;;;;;;9.68;6.28;;;;;;;;;;10461488;28;20539;-80
2023/11/06 16:51:36;;;;;;;12.00;6.47;;;;;;;;;;10462011;28;20512;-80
2023/11/06 16:56:43;;;;;;;13.85;8.10;;;;;;;;;;10470278;28;20446;-80
2023/11/06 17:01:47;;;;;;;12.37;7.60;;;;;;;;;;10454792;28;20986;-79
2023/11/06 17:06:52;;;;;;;17.35;10.98;;;;;;;;;;10460003;28;20434;-80
2023/11/06 17:11:56;;;;;;;16.60;10.15;;;;;;;;;;10462828;28;20481;-79
2023/11/06 17:16:58;;;;;;;13.90;9.43;;;;;;;;;;10453227;28;20435;-80
2023/11/06 17:22:03;;;;;;;15.83;10.43;;;;;;;;;;10465965;28;20435;-80
2023/11/06 17:27:06;;;;;;;16.03;9.40;;;;;;;;;;10457456;28;20474;-79
2023/11/06 17:32:08;;;;;;;23.80;14.63;;;;;;;;;;10463945;28;20450;-80
2023/11/06 17:37:12;;;;;;;34.05;19.98;;;;;;;;;;10465793;28;20481;-80
2023/11/06 17:42:15;;;;;;;20.63;12.18;;;;;;;;;;10458359;28;20440;-80
2023/11/06 17:47:19;;;;;;;18.40;11.07;;;;;;;;;;10464571;28;20446;-79
2023/11/06 17:52:22;;;;;;;16.35;10.85;;;;;;;;;;10468928;28;20450;-80
2023/11/06 17:57:25;;;;;;;15.50;10.30;;;;;;;;;;10466846;28;20439;-80
2023/11/06 18:02:27;;;;;;;18.47;12.30;;;;;;;;;;10456929;28;20531;-80
2023/11/06 18:07:31;;;;;;;16.00;11.30;;;;;;;;;;10454093;28;20476;-79
2023/11/06 18:12:35;;;;;;;17.92;11.65;;;;;;;;;;10462767;28;20451;-79
2023/11/06 18:17:37;;;;;;;21.98;13.43;;;;;;;;;;10462903;28;20436;-80
2023/11/06 18:22:41;;;;;;;18.45;12.25;;;;;;;;;;10462623;28;20442;-79
2023/11/06 18:27:43;;;;;;;23.15;13.07;;;;;;;;;;10471442;28;20406;-79
2023/11/06 18:32:45;;;;;;;23.90;14.60;;;;;;;;;;10459497;28;20850;-79
2023/11/06 18:37:49;;;;;;;23.45;13.70;;;;;;;;;;10441306;28;20481;-80
2023/11/06 18:42:52;;;;;;;20.45;13.35;;;;;;;;;;10454278;28;20495;-79
2023/11/06 18:47:55;;;;;;;23.08;15.93;;;;;;;;;;10447934;28;20923;-79
2023/11/06 18:52:58;;;;;;;21.23;15.35;;;;;;;;;;10453781;28;20540;-80
2023/11/06 18:58:02;;;;;;;27.67;15.70;;;;;;;;;;10443573;28;20479;-79
2023/11/06 19:03:04;;;;;;;27.30;17.67;;;;;;;;;;10445068;28;20532;-80
2023/11/06 19:08:10;;;;;;;29.40;17.92;;;;;;;;;;10441390;28;20492;-79
2023/11/06 19:13:12;;;;;;;24.97;16.73;;;;;;;;;;10442724;28;21302;-80
2023/11/06 19:18:15;;;;;;;22.83;14.50;;;;;;;;;;10450465;28;20457;-79
2023/11/06 19:23:18;;;;;;;20.53;12.47;;;;;;;;;;10456399;28;20453;-79
2023/11/06 19:28:21;;;;;;;15.83;11.37;;;;;;;;;;10453938;28;20509;-79
2023/11/06 19:33:23;;;;;;;17.20;10.80;;;;;;;;;;10460923;28;20460;-79
2023/11/06 19:38:27;;;;;;;14.75;9.68;;;;;;;;;;10449423;28;20455;-79
2023/11/06 19:43:29;;;;;;;11.20;8.10;;;;;;;;;;10454988;28;20835;-80
2023/11/06 19:48:31;;;;;;;12.50;8.85;;;;;;;;;;10457787;28;20460;-80
2023/11/06 19:53:35;;;;;;;14.80;9.47;;;;;;;;;;10449524;28;20539;-80
2023/11/06 19:58:44;;;;;;;16.97;10.37;;;;;;;;;;10447792;28;20504;-80
2023/11/06 20:03:46;;;;;;;14.52;8.52;;;;;;;;;;10444815;28;20569;-80
2023/11/06 20:08:50;;;;;;;13.52;8.80;;;;;;;;;;10443642;28;20455;-80
2023/11/06 20:13:53;;;;;;;17.02;9.50;;;;;;;;;;10450505;28;20958;-80
2023/11/06 20:18:55;;;;;;;13.67;8.67;;;;;;;;;;10455439;28;21114;-80
2023/11/06 20:23:59;;;;;;;17.33;10.82;;;;;;;;;;10462463;28;20518;-80
2023/11/06 20:29:02;;;;;;;14.50;9.60;;;;;;;;;;10465173;28;20442;-80
2023/11/06 20:34:05;;;;;;;14.30;9.60;;;;;;;;;;10448168;28;20526;-79
2023/11/06 20:39:08;;;;;;;12.20;8.50;;;;;;;;;;10444955;28;20530;-79
2023/11/06 20:44:11;;;;;;;13.23;9.00;;;;;;;;;;10440784;28;20443;-79
2023/11/06 20:49:13;;;;;;;14.48;8.05;;;;;;;;;;10437648;28;20439;-80
2023/11/06 20:54:17;;;;;;;12.43;8.10;;;;;;;;;;10448073;28;20459;-79
2023/11/06 20:59:19;;;;;;;11.80;8.57;;;;;;;;;;10453904;28;20908;-79
2023/11/06 21:04:22;;;;;;;13.93;8.20;;;;;;;;;;10458927;28;20509;-79
2023/11/06 21:09:25;;;;;;;16.40;8.97;;;;;;;;;;10454011;28;20480;-80
2023/11/06 21:14:28;;;;;;;11.68;7.90;;;;;;;;;;10447927;28;20513;-79
2023/11/06 21:19:30;;;;;;;11.13;7.88;;;;;;;;;;10449982;28;20982;-79
2023/11/06 21:24:34;;;;;;;16.65;9.02;;;;;;;;;;10455611;28;20480;-79
2023/11/06 21:29:37;;;;;;;12.07;8.13;;;;;;;;;;10458170;28;20525;-79
2023/11/06 21:34:40;;;;;;;15.20;10.32;;;;;;;;;;10456823;28;20454;-80
2023/11/06 21:39:43;;;;;;;10.32;8.50;;;;;;;;;;10458759;28;20954;-79
2023/11/06 21:44:46;;;;;;;11.57;7.43;;;;;;;;;;10461770;28;20480;-79
2023/11/06 21:49:48;;;;;;;11.43;8.23;;;;;;;;;;10454928;28;20496;-79
2023/11/06 21:54:52;;;;;;;10.88;6.78;;;;;;;;;;10458752;28;20450;-80
2023/11/06 21:59:54;;;;;;;10.07;6.85;;;;;;;;;;10449772;28;20474;-79
2023/11/06 22:04:57;;;;;;;9.48;7.30;;;;;;;;;;10450875;28;20485;-79
2023/11/06 22:10:01;;;;;;;9.27;7.07;;;;;;;;;;10446115;28;20450;-80
2023/11/06 22:15:05;;;;;;;10.73;7.00;;;;;;;;;;10440863;28;20998;-79
2023/11/06 22:20:08;;;;;;;13.02;7.60;;;;;;;;;;10446833;28;20441;-79
2023/11/06 22:25:12;;;;;;;8.45;7.05;;;;;;;;;;10457803;28;20500;-80
2023/11/06 22:30:15;;;;;;;9.43;6.93;;;;;;;;;;10467316;28;20446;-79
2023/11/06 22:35:18;;;;;;;8.95;6.70;;;;;;;;;;10457873;28;20494;-80
2023/11/06 22:40:22;;;;;;;11.10;7.15;;;;;;;;;;10457390;28;20499;-80
2023/11/06 22:45:24;;;;;;;13.10;8.52;;;;;;;;;;10451379;28;20472;-80
2023/11/06 22:50:27;;;;;;;12.63;8.77;;;;;;;;;;10444255;28;20483;-79
2023/11/06 22:55:31;;;;;;;12.05;8.35;;;;;;;;;;10456719;28;21036;-79
2023/11/06 23:00:35;;;;;;;13.13;9.23;;;;;;;;;;10470826;28;20435;-79
2023/11/06 23:05:38;;;;;;;12.52;9.07;;;;;;;;;;10463246;28;20439;-80
2023/11/06 23:10:42;;;;;;;13.13;8.20;;;;;;;;;;10464800;28;20438;-80
2023/11/06 23:15:44;;;;;;;11.27;8.10;;;;;;;;;;10465126;28;20539;-80
2023/11/06 23:20:47;;;;;;;12.38;8.55;;;;;;;;;;10460321;28;20866;-79
2023/11/06 23:25:51;;;;;;;9.27;7.47;;;;;;;;;;10473932;28;20736;-80
2023/11/06 23:30:53;;;;;;;10.70;7.80;;;;;;;;;;10471955;28;20438;-80
2023/11/06 23:35:56;;;;;;;14.93;8.73;;;;;;;;;;10466506;28;20491;-79
2023/11/06 23:40:59;;;;;;;13.80;8.40;;;;;;;;;;10467787;28;20468;-79
2023/11/06 23:46:02;;;;;;;12.10;7.82;;;;;;;;;;10464723;28;20435;-79
2023/11/06 23:51:05;;;;;;;14.88;7.68;;;;;;;;;;10465600;28;20433;-79
2023/11/06 23:56:10;;;;;;;10.53;7.17;;;;;;;;;;10463906;28;20570;-79
